Time;durP1;ratioP1;P1;durP2;ratioP2;P2;SDS_P1;SDS_P2;PMS_P1;PMS_P2;Temp;Humidity;BMP_temperature;BMP_pressure;BME280_temperature;BME280_humidity;BME280_pressure;Samples;Min_cycle;Max_cycle;Signal;HPM_P1;HPM_P2
2023/06/10 00:01:41;;;;;;;1.23;1.13;;;12.40;55.50;;;;;;5091881;28;20258;-57
2023/06/10 00:04:12;;;;;;;1.88;1.00;;;12.40;55.60;;;;;;5091640;28;20565;-52
2023/06/10 00:06:43;;;;;;;2.03;1.10;;;12.40;56.10;;;;;;5091334;28;20218;-47
2023/06/10 00:09:14;;;;;;;1.60;1.17;;;12.40;55.60;;;;;;5091389;28;20198;-54
2023/06/10 00:11:45;;;;;;;1.30;0.98;;;12.40;55.60;;;;;;5091758;28;20190;-55
2023/06/10 00:14:16;;;;;;;1.38;1.13;;;12.40;55.60;;;;;;5091689;28;20197;-52
2023/06/10 00:16:49;;;;;;;1.55;1.02;;;12.50;55.60;;;;;;5094884;28;20226;-54
2023/06/10 00:19:20;;;;;;;2.03;1.10;;;12.50;55.70;;;;;;5096121;28;20684;-53
2023/06/10 00:21:52;;;;;;;2.22;1.20;;;12.50;55.70;;;;;;5095289;28;20595;-50
2023/06/10 00:24:22;;;;;;;1.63;1.02;;;12.50;55.70;;;;;;5095340;28;20235;-52
2023/06/10 00:26:53;;;;;;;1.25;1.10;;;12.50;55.80;;;;;;5095041;28;20226;-52
2023/06/10 00:29:24;;;;;;;1.45;1.02;;;12.50;55.80;;;;;;5095261;28;20194;-56
2023/06/10 00:31:57;;;;;;;2.60;1.15;;;12.50;55.70;;;;;;5095443;28;20198;-54
2023/06/10 00:34:28;;;;;;;1.98;1.25;;;12.60;55.80;;;;;;5095465;28;20190;-50
2023/06/10 00:36:58;;;;;;;2.55;1.33;;;12.60;55.80;;;;;;5094961;28;20226;-55
2023/06/10 00:39:29;;;;;;;2.08;0.90;;;12.60;55.80;;;;;;5095358;28;20198;-53
2023/06/10 00:41:59;;;;;;;1.95;1.20;;;12.60;55.80;;;;;;5095170;28;20654;-54
2023/06/10 00:44:30;;;;;;;1.77;1.15;;;12.60;55.80;;;;;;5094961;28;20205;-54
2023/06/10 00:47:03;;;;;;;1.75;1.10;;;12.60;55.80;;;;;;5095152;28;20222;-53
2023/06/10 00:49:33;;;;;;;1.63;1.00;;;12.60;55.80;;;;;;5095289;28;20193;-56
2023/06/10 00:52:06;;;;;;;1.95;1.00;;;12.60;55.80;;;;;;5094374;28;20201;-52
2023/06/10 00:54:38;;;;;;;1.98;1.40;;;12.70;55.90;;;;;;5094017;28;20561;-54
2023/06/10 00:57:09;;;;;;;2.05;1.08;;;12.70;55.90;;;;;;5087692;28;20222;-51
2023/06/10 00:59:40;;;;;;;1.30;1.10;;;12.70;56.00;;;;;;5076712;28;20556;-52
2023/06/10 01:02:13;;;;;;;1.58;1.10;;;12.70;56.00;;;;;;5074510;28;20587;-53
2023/06/10 01:04:44;;;;;;;1.23;1.13;;;12.70;56.00;;;;;;5074472;28;20198;-54
2023/06/10 01:07:23;;;;;;;1.95;1.10;;;12.70;56.00;;;;;;5073677;28;20233;-50
2023/06/10 01:10:00;;;;;;;1.38;1.08;;;12.70;56.00;;;;;;5074299;28;20198;-56
2023/06/10 01:12:36;;;;;;;1.08;0.98;;;12.80;56.00;;;;;;5074164;28;20194;-57
2023/06/10 01:15:08;;;;;;;1.25;1.10;;;12.80;56.00;;;;;;5073961;28;20213;-57
2023/06/10 01:17:55;;;;;;;1.67;1.00;;;12.80;56.00;;;;;;5074301;28;20246;-56
2023/06/10 01:20:26;;;;;;;1.10;0.77;;;12.80;56.00;;;;;;5018818;23;20319;-55
2023/06/10 01:22:59;;;;;;;1.60;1.00;;;12.90;56.00;;;;;;4994349;28;20225;-54
2023/06/10 01:25:32;;;;;;;2.05;1.60;;;12.90;56.10;;;;;;4994211;28;20240;-56
2023/06/10 01:28:09;;;;;;;1.30;1.17;;;12.90;56.10;;;;;;4996683;28;20212;-57
2023/06/10 01:30:47;;;;;;;1.73;0.98;;;12.90;56.10;;;;;;4994601;28;20197;-56
2023/06/10 01:33:23;;;;;;;1.48;1.13;;;12.90;56.10;;;;;;4995135;28;20232;-56
2023/06/10 01:35:55;;;;;;;1.67;1.20;;;12.90;56.70;;;;;;4994315;28;20712;-55
2023/06/10 01:38:31;;;;;;;1.70;1.10;;;13.00;56.20;;;;;;4993894;28;20236;-50
2023/06/10 01:41:03;;;;;;;1.52;1.08;;;13.00;56.30;;;;;;4994281;28;20204;-57
2023/06/10 01:43:36;;;;;;;1.42;1.27;;;13.00;56.20;;;;;;4994410;28;20193;-57
2023/06/10 01:46:07;;;;;;;1.63;1.20;;;13.00;56.20;;;;;;5005467;28;20299;-54
2023/06/10 01:48:37;;;;;;;1.98;1.27;;;13.00;56.20;;;;;;5013611;28;20204;-57
2023/06/10 01:51:08;;;;;;;1.60;1.00;;;13.10;56.30;;;;;;5014056;28;20196;-56
2023/06/10 01:53:41;;;;;;;2.40;1.25;;;13.10;56.20;;;;;;5014296;28;20200;-58
2023/06/10 01:56:16;;;;;;;1.98;1.30;;;13.10;56.20;;;;;;5013968;28;20217;-57
2023/06/10 01:58:47;;;;;;;2.38;1.27;;;13.10;56.20;;;;;;4994341;28;20268;-54
2023/06/10 02:01:18;;;;;;;1.88;1.00;;;13.20;56.20;;;;;;4994325;28;20657;-55
2023/06/10 02:03:48;;;;;;;2.60;1.33;;;13.20;56.20;;;;;;4994409;28;20209;-56
2023/06/10 02:06:19;;;;;;;1.20;0.90;;;13.30;56.20;;;;;;4994475;28;20217;-57
2023/06/10 02:08:51;;;;;;;1.45;1.20;;;13.30;56.20;;;;;;4993568;28;20197;-55
2023/06/10 02:11:22;;;;;;;2.53;1.30;;;13.30;56.20;;;;;;4993904;28;20198;-59
2023/06/10 02:13:53;;;;;;;1.30;1.20;;;13.30;56.20;;;;;;4993898;28;20281;-56
2023/06/10 02:16:23;;;;;;;2.00;1.30;;;13.40;56.20;;;;;;4993897;28;20221;-56
2023/06/10 03:18:32;;;;;;;1.67;1.33;;;14.00;56.40;;;;;;6087562;22;20187;-55
2023/06/10 03:21:03;;;;;;;1.20;0.88;;;14.10;56.40;;;;;;5034627;28;20520;-55
2023/06/10 03:23:34;;;;;;;1.20;1.05;;;14.10;56.40;;;;;;5016854;28;20677;-56
2023/06/10 03:26:06;;;;;;;2.20;1.50;;;14.10;56.30;;;;;;5031557;28;20724;-56
2023/06/10 03:28:39;;;;;;;1.40;1.20;;;14.20;56.30;;;;;;5052507;28;20202;-53
2023/06/10 03:31:10;;;;;;;1.70;1.10;;;14.20;56.30;;;;;;5051876;28;20670;-52
2023/06/10 03:33:42;;;;;;;1.65;1.08;;;14.20;56.30;;;;;;5051696;28;20655;-57
2023/06/10 03:36:13;;;;;;;2.20;1.10;;;14.30;56.30;;;;;;5051528;28;20627;-53
2023/06/10 03:38:44;;;;;;;1.77;1.20;;;14.30;56.30;;;;;;5051145;28;20227;-55
2023/06/10 03:41:14;;;;;;;1.38;1.13;;;14.30;56.30;;;;;;5051235;28;20573;-55
2023/06/10 03:43:45;;;;;;;2.08;1.02;;;14.40;56.40;;;;;;5052302;28;20199;-56
2023/06/10 03:46:17;;;;;;;1.25;1.02;;;14.40;56.40;;;;;;5051455;28;20226;-55
2023/06/10 03:48:50;;;;;;;2.13;1.15;;;14.40;56.30;;;;;;5051500;28;20279;-58
2023/06/10 03:51:20;;;;;;;1.20;0.95;;;14.50;56.30;;;;;;5051710;28;20208;-55
2023/06/10 03:53:51;;;;;;;1.48;1.38;;;14.50;56.40;;;;;;5051588;28;20203;-55
2023/06/10 03:56:22;;;;;;;2.20;1.13;;;14.50;56.30;;;;;;5053275;28;20215;-59
2023/06/10 03:58:52;;;;;;;2.78;1.10;;;14.60;56.30;;;;;;5051365;28;20242;-55
2023/06/10 04:01:23;;;;;;;1.65;1.20;;;14.60;56.30;;;;;;5051236;28;20203;-51
2023/06/10 04:03:56;;;;;;;2.80;1.30;;;14.60;56.20;;;;;;5050828;28;20195;-57
2023/06/10 04:06:28;;;;;;;1.27;1.00;;;14.70;56.20;;;;;;5050796;28;20262;-55
2023/06/10 04:08:59;;;;;;;1.35;1.17;;;14.70;56.20;;;;;;5051199;28;20290;-58
2023/06/10 04:11:30;;;;;;;3.20;1.65;;;14.70;56.10;;;;;;5050961;28;20655;-51
2023/06/10 04:14:00;;;;;;;2.83;1.50;;;14.80;56.10;;;;;;5050677;28;20199;-59
2023/06/10 04:16:31;;;;;;;2.42;1.33;;;14.80;56.10;;;;;;5050993;28;20230;-54
2023/06/10 04:19:04;;;;;;;2.60;1.77;;;14.80;56.10;;;;;;5051117;28;20621;-56
2023/06/10 04:21:35;;;;;;;3.90;2.10;;;14.90;56.10;;;;;;5051548;28;20667;-56
2023/06/10 04:24:06;;;;;;;4.82;2.05;;;14.90;56.10;;;;;;5051217;28;20253;-56
2023/06/10 04:26:37;;;;;;;3.85;2.45;;;14.90;56.00;;;;;;5050897;28;20215;-57
2023/06/10 04:29:08;;;;;;;3.45;2.05;;;14.90;56.00;;;;;;5050654;28;20195;-56
2023/06/10 04:31:39;;;;;;;4.68;3.00;;;15.00;56.80;;;;;;5050864;28;20203;-55
2023/06/10 04:34:11;;;;;;;7.07;4.05;;;15.10;56.90;;;;;;5050913;28;20199;-58
2023/06/10 04:36:42;;;;;;;5.93;3.25;;;15.10;56.50;;;;;;5051184;28;20219;-49
2023/06/10 04:39:13;;;;;;;8.15;3.83;;;15.10;56.20;;;;;;5051121;28;20280;-48
2023/06/10 04:41:44;;;;;;;6.45;3.83;;;15.10;56.10;;;;;;5051054;28;20234;-56
2023/06/10 04:44:14;;;;;;;6.20;3.67;;;15.00;56.00;;;;;;5050729;28;20196;-58
2023/06/10 04:46:45;;;;;;;4.28;2.90;;;14.90;56.00;;;;;;5050819;28;20215;-59
2023/06/10 04:49:17;;;;;;;5.45;3.47;;;14.90;56.00;;;;;;5046724;28;20808;-56
2023/06/10 04:51:48;;;;;;;4.18;2.78;;;14.90;55.80;;;;;;5030734;28;20195;-56
2023/06/10 04:54:19;;;;;;;4.10;2.78;;;14.80;55.60;;;;;;5030492;28;20192;-59
2023/06/10 04:56:49;;;;;;;4.35;2.90;;;14.80;55.40;;;;;;5034914;28;20223;-56
2023/06/10 04:59:20;;;;;;;7.13;4.28;;;14.70;55.10;;;;;;5050271;28;20226;-58
2023/06/10 05:01:51;;;;;;;6.95;4.18;;;14.70;54.90;;;;;;5054759;28;20573;-56
2023/06/10 05:04:23;;;;;;;4.53;3.72;;;14.60;54.80;;;;;;5054136;28;20202;-57
2023/06/10 05:06:54;;;;;;;8.07;3.38;;;14.60;54.80;;;;;;5070109;28;20222;-56
2023/06/10 05:09:25;;;;;;;7.57;4.50;;;14.50;54.60;;;;;;5074363;28;20199;-54
2023/06/10 05:11:56;;;;;;;6.43;5.53;;;14.50;54.50;;;;;;5074540;28;20648;-54
2023/06/10 05:14:27;;;;;;;8.43;6.50;;;14.50;54.40;;;;;;5074532;28;20195;-56
2023/06/10 05:16:58;;;;;;;8.63;6.50;;;14.40;54.30;;;;;;5074108;28;20280;-54
2023/06/10 05:19:30;;;;;;;7.60;6.03;;;14.40;54.10;;;;;;5071877;28;20600;-56
2023/06/10 05:22:01;;;;;;;7.75;6.90;;;14.30;53.80;;;;;;5074294;28;20194;-52
2023/06/10 05:24:31;;;;;;;11.70;6.22;;;14.20;53.70;;;;;;5074007;28;20557;-57
2023/06/10 05:27:02;;;;;;;5.13;4.60;;;14.10;53.60;;;;;;5069029;28;20702;-53
2023/06/10 05:29:33;;;;;;;7.20;4.43;;;14.10;53.70;;;;;;5054874;28;20244;-51
2023/06/10 05:32:04;;;;;;;6.88;4.40;;;14.00;53.60;;;;;;5054133;28;20191;-58
2023/06/10 05:34:36;;;;;;;8.13;5.53;;;13.90;53.50;;;;;;5053543;28;20286;-54
2023/06/10 05:37:08;;;;;;;14.20;11.15;;;13.80;53.40;;;;;;5053583;28;20219;-55
2023/06/10 05:39:39;;;;;;;11.00;8.20;;;13.70;53.40;;;;;;5053637;28;20234;-55
2023/06/10 05:42:11;;;;;;;10.30;9.02;;;13.70;53.50;;;;;;5053762;28;20199;-59
2023/06/10 05:44:41;;;;;;;13.27;11.88;;;13.60;53.70;;;;;;5054163;28;20667;-52
2023/06/10 05:47:12;;;;;;;9.25;6.43;;;13.50;53.70;;;;;;5053920;28;20215;-50
2023/06/10 05:49:45;;;;;;;5.30;4.80;;;13.50;53.80;;;;;;5053196;28;20195;-57
2023/06/10 05:52:16;;;;;;;10.30;9.23;;;13.40;53.70;;;;;;5057665;28;20249;-56
2023/06/10 05:54:46;;;;;;;7.15;6.53;;;13.30;53.60;;;;;;5073631;28;20252;-48
2023/06/10 05:57:17;;;;;;;6.00;4.93;;;13.30;53.60;;;;;;5065229;28;20223;-52
2023/06/10 05:59:48;;;;;;;44.55;20.73;;;13.20;53.60;;;;;;5053193;28;20757;-56
2023/06/10 06:02:18;;;;;;;45.08;20.80;;;13.10;53.60;;;;;;5054831;28;20194;-52
2023/06/10 06:04:51;;;;;;;18.65;10.00;;;13.10;53.60;;;;;;5073402;28;20199;-57
2023/06/10 06:07:22;;;;;;;11.43;6.18;;;13.00;53.60;;;;;;5073231;28;20202;-56
2023/06/10 06:09:53;;;;;;;8.95;6.00;;;13.00;53.60;;;;;;5073053;28;20241;-53
2023/06/10 06:12:23;;;;;;;16.85;11.93;;;12.90;53.60;;;;;;5072692;28;20203;-58
2023/06/10 06:14:54;;;;;;;13.85;10.27;;;12.90;53.60;;;;;;5073117;28;20206;-54
2023/06/10 06:17:24;;;;;;;9.18;7.18;;;12.80;53.70;;;;;;5073227;28;20202;-59
2023/06/10 06:19:57;;;;;;;5.15;4.57;;;12.80;54.10;;;;;;5072296;28;20223;-57
2023/06/10 06:22:28;;;;;;;6.13;4.50;;;12.70;53.80;;;;;;5073301;28;20202;-55
2023/06/10 06:24:58;;;;;;;5.53;4.57;;;12.70;53.80;;;;;;5073085;28;20324;-58
2023/06/10 06:27:29;;;;;;;5.00;4.07;;;12.70;54.00;;;;;;5063433;28;20195;-53
2023/06/10 06:29:59;;;;;;;5.95;4.22;;;12.60;54.00;;;;;;5053117;28;20207;-56
2023/06/10 06:32:30;;;;;;;7.25;5.28;;;12.60;54.10;;;;;;5052751;28;20206;-59
2023/06/10 06:35:03;;;;;;;9.00;6.13;;;12.60;54.10;;;;;;5052349;28;20202;-57
2023/06/10 06:37:33;;;;;;;8.32;7.50;;;12.50;54.20;;;;;;5052513;28;20295;-59
2023/06/10 06:40:04;;;;;;;10.98;9.15;;;12.50;54.30;;;;;;5052610;28;20226;-55
2023/06/10 06:42:35;;;;;;;12.80;11.20;;;12.50;54.40;;;;;;5052763;28;20647;-59
2023/06/10 06:45:05;;;;;;;12.57;11.02;;;12.40;54.40;;;;;;5052936;28;20192;-59
2023/06/10 06:47:36;;;;;;;16.08;11.68;;;12.40;54.50;;;;;;5052368;28;20196;-58
2023/06/10 06:50:09;;;;;;;14.90;11.90;;;12.40;54.50;;;;;;5052849;28;20200;-58
2023/06/10 06:52:40;;;;;;;11.73;10.10;;;12.40;54.50;;;;;;5052259;28;20191;-58
2023/06/10 06:55:11;;;;;;;10.23;9.20;;;12.30;54.50;;;;;;5051123;28;20199;-50
2023/06/10 06:57:41;;;;;;;8.40;7.28;;;12.30;54.50;;;;;;5051672;28;20211;-52
2023/06/10 07:00:13;;;;;;;6.32;5.72;;;12.30;54.60;;;;;;5051778;28;20227;-54
2023/06/10 07:02:43;;;;;;;8.27;5.38;;;12.20;54.60;;;;;;5050985;28;20202;-48
2023/06/10 07:05:16;;;;;;;6.32;4.60;;;12.20;54.60;;;;;;5051648;28;20199;-51
2023/06/10 07:07:47;;;;;;;5.50;4.50;;;12.20;54.60;;;;;;5051819;28;20583;-51
2023/06/10 07:10:18;;;;;;;6.40;5.35;;;12.20;54.60;;;;;;5052441;28;20569;-57
2023/06/10 07:12:49;;;;;;;5.80;4.47;;;12.10;54.50;;;;;;5056468;28;20195;-57
2023/06/10 07:15:19;;;;;;;4.30;3.78;;;12.10;54.50;;;;;;5051180;28;20226;-50
2023/06/10 07:17:50;;;;;;;4.25;3.83;;;12.10;54.60;;;;;;5051809;28;20629;-49
2023/06/10 07:20:23;;;;;;;3.10;2.72;;;12.00;54.60;;;;;;5052420;28;20585;-52
2023/06/10 07:22:53;;;;;;;5.18;3.30;;;12.00;54.60;;;;;;5056436;28;20643;-54
2023/06/10 07:25:24;;;;;;;3.88;3.47;;;12.00;54.60;;;;;;5071404;28;20219;-53
2023/06/10 07:27:55;;;;;;;5.45;3.33;;;12.00;54.50;;;;;;5058669;28;20588;-51
2023/06/10 07:30:25;;;;;;;4.75;2.72;;;11.90;54.40;;;;;;5051563;28;20204;-51
2023/06/10 07:32:56;;;;;;;4.32;3.78;;;11.90;54.30;;;;;;5051371;28;20192;-54
2023/06/10 07:35:28;;;;;;;3.75;3.10;;;11.90;54.80;;;;;;5051790;28;20218;-55
2023/06/10 07:37:59;;;;;;;4.45;3.03;;;11.80;54.00;;;;;;5051493;28;20207;-57
2023/06/10 07:40:30;;;;;;;4.20;3.60;;;11.80;53.90;;;;;;5051484;28;20227;-54
2023/06/10 07:43:00;;;;;;;3.80;3.35;;;11.70;53.80;;;;;;5051181;28;20208;-55
2023/06/10 07:45:31;;;;;;;3.00;2.70;;;11.70;53.70;;;;;;5051153;28;20219;-52
2023/06/10 07:48:01;;;;;;;3.67;2.35;;;11.70;53.60;;;;;;5051172;28;20195;-52
2023/06/10 07:50:34;;;;;;;4.38;3.08;;;11.60;53.50;;;;;;5051529;28;20199;-54
2023/06/10 07:53:05;;;;;;;2.97;2.40;;;11.60;53.50;;;;;;5051499;28;20203;-51
2023/06/10 07:55:35;;;;;;;4.45;3.05;;;11.50;53.40;;;;;;5051342;28;20212;-59
2023/06/10 07:58:06;;;;;;;2.72;2.40;;;11.50;53.30;;;;;;5051383;28;20206;-48
2023/06/10 08:00:37;;;;;;;4.65;2.80;;;11.40;53.30;;;;;;5061752;28;20563;-53
2023/06/10 08:03:07;;;;;;;2.80;2.20;;;11.40;53.40;;;;;;5071287;28;20202;-53
2023/06/10 08:05:41;;;;;;;4.25;3.33;;;11.40;53.40;;;;;;5069511;28;20215;-55
2023/06/10 08:08:12;;;;;;;3.65;2.90;;;11.40;53.50;;;;;;5070735;28;20554;-57
2023/06/10 08:10:42;;;;;;;3.40;2.42;;;11.30;53.70;;;;;;5071412;28;20207;-54
2023/06/10 08:13:13;;;;;;;2.50;2.25;;;11.30;53.70;;;;;;5071505;28;20206;-57
2023/06/10 08:15:44;;;;;;;3.50;2.80;;;11.30;53.70;;;;;;5071039;28;20214;-56
2023/06/10 08:18:14;;;;;;;3.92;3.22;;;11.30;53.80;;;;;;5070506;28;20198;-53
2023/06/10 08:20:47;;;;;;;3.83;3.30;;;11.20;53.80;;;;;;5070743;28;20230;-54
2023/06/10 08:23:21;;;;;;;5.30;3.90;;;11.20;53.80;;;;;;5071486;28;20194;-53
2023/06/10 08:25:52;;;;;;;7.70;4.90;;;11.20;53.70;;;;;;5071128;28;20685;-55
2023/06/10 08:28:22;;;;;;;7.25;4.85;;;11.20;53.70;;;;;;5053689;28;20195;-57
2023/06/10 08:30:53;;;;;;;3.45;2.92;;;11.20;53.70;;;;;;5050320;28;20198;-57
2023/06/10 08:33:24;;;;;;;3.08;2.50;;;11.20;53.80;;;;;;5050208;28;20196;-57
2023/06/10 08:35:56;;;;;;;2.95;2.40;;;11.20;53.80;;;;;;5050876;28;20223;-54
2023/06/10 08:38:27;;;;;;;2.53;2.30;;;11.10;53.90;;;;;;5054855;28;20199;-58
2023/06/10 08:41:02;;;;;;;2.22;1.95;;;11.10;54.10;;;;;;5054811;28;20222;-58
2023/06/10 08:43:38;;;;;;;2.67;1.70;;;11.10;54.30;;;;;;5055101;28;20245;-53
2023/06/10 08:46:11;;;;;;;3.35;2.00;;;11.00;54.40;;;;;;5054978;28;20219;-55
2023/06/10 08:48:45;;;;;;;1.73;1.63;;;11.00;54.60;;;;;;5054684;28;20195;-55
2023/06/10 08:51:19;;;;;;;2.40;2.05;;;11.00;54.70;;;;;;5054723;28;20646;-56
2023/06/10 08:53:56;;;;;;;2.78;1.80;;;11.00;54.90;;;;;;5054572;28;20206;-58
2023/06/10 08:56:29;;;;;;;1.98;1.60;;;11.00;55.00;;;;;;5054445;28;20599;-60
2023/06/10 08:59:01;;;;;;;2.28;1.75;;;11.00;55.20;;;;;;5054704;28;20616;-60
2023/06/10 09:01:32;;;;;;;2.17;1.52;;;11.00;55.30;;;;;;5055677;28;20192;-57
2023/06/10 09:04:04;;;;;;;3.30;1.92;;;11.00;55.40;;;;;;5054893;28;20571;-59
2023/06/10 09:06:37;;;;;;;2.80;2.00;;;10.90;55.40;;;;;;5054329;28;20215;-55
2023/06/10 09:09:09;;;;;;;2.20;2.00;;;10.90;55.50;;;;;;5054244;28;20199;-53
2023/06/10 09:11:40;;;;;;;2.45;1.92;;;10.90;55.50;;;;;;5054332;28;20192;-49
2023/06/10 09:14:11;;;;;;;2.20;2.00;;;10.90;55.60;;;;;;5054504;28;20207;-49
2023/06/10 09:16:42;;;;;;;4.25;2.28;;;10.90;55.80;;;;;;5053713;28;20294;-51
2023/06/10 09:19:15;;;;;;;2.30;2.00;;;10.90;55.90;;;;;;5053592;28;20667;-51
2023/06/10 09:21:47;;;;;;;2.42;1.90;;;11.00;55.90;;;;;;5060666;28;20232;-51
2023/06/10 09:24:19;;;;;;;2.42;1.80;;;11.00;55.90;;;;;;5053564;28;20204;-54
2023/06/10 09:26:50;;;;;;;2.58;1.80;;;11.00;55.90;;;;;;5054751;28;20215;-50
2023/06/10 09:29:21;;;;;;;8.52;2.22;;;11.10;55.90;;;;;;5053980;28;20211;-52
2023/06/10 09:31:52;;;;;;;3.00;2.10;;;11.10;55.90;;;;;;5053721;28;20663;-54
2023/06/10 09:34:27;;;;;;;3.40;2.00;;;11.10;55.80;;;;;;5054197;28;20565;-52
2023/06/10 09:37:00;;;;;;;2.10;1.90;;;11.20;55.90;;;;;;5053993;28;20211;-53
2023/06/10 09:39:31;;;;;;;3.63;1.80;;;11.20;55.90;;;;;;5053825;28;20219;-53
2023/06/10 09:42:02;;;;;;;1.92;1.67;;;11.20;55.80;;;;;;5054288;28;20206;-55
2023/06/10 09:44:33;;;;;;;2.58;1.80;;;11.30;55.80;;;;;;5053779;28;20199;-53
2023/06/10 09:47:03;;;;;;;2.75;1.90;;;11.30;55.70;;;;;;5053084;28;20679;-53
2023/06/10 09:49:34;;;;;;;2.08;1.88;;;11.30;55.70;;;;;;5053408;28;20210;-55
2023/06/10 09:52:09;;;;;;;2.53;1.90;;;11.30;55.70;;;;;;5057655;28;20602;-51
2023/06/10 09:54:40;;;;;;;2.40;1.90;;;11.40;55.70;;;;;;5073350;28;20198;-54
2023/06/10 09:57:11;;;;;;;2.30;1.90;;;11.40;55.60;;;;;;5066579;28;20227;-50
2023/06/10 09:59:45;;;;;;;2.70;1.73;;;11.40;55.60;;;;;;5053429;28;20679;-52
2023/06/10 10:02:18;;;;;;;2.15;1.85;;;11.40;55.60;;;;;;5053138;28;20201;-50
2023/06/10 10:04:50;;;;;;;2.92;1.98;;;11.40;55.60;;;;;;5053531;28;20666;-57
2023/06/10 10:07:22;;;;;;;1.90;1.63;;;11.50;55.60;;;;;;5058164;28;20603;-55
2023/06/10 10:09:53;;;;;;;1.80;1.50;;;11.50;55.50;;;;;;5073319;28;20553;-54
2023/06/10 10:12:25;;;;;;;2.88;2.10;;;11.50;55.50;;;;;;5073322;28;20229;-55
2023/06/10 10:14:58;;;;;;;2.47;2.05;;;11.50;55.50;;;;;;5072705;28;20198;-51
2023/06/10 10:17:28;;;;;;;4.57;2.42;;;11.50;55.50;;;;;;5072668;28;20195;-53
2023/06/10 10:20:04;;;;;;;2.42;2.10;;;11.50;55.50;;;;;;5073245;28;20230;-51
2023/06/10 10:22:40;;;;;;;3.08;2.00;;;11.50;55.50;;;;;;5073393;28;20653;-52
2023/06/10 10:25:16;;;;;;;3.22;2.08;;;11.50;55.50;;;;;;5072763;28;20371;-53
2023/06/10 10:27:51;;;;;;;2.47;2.28;;;11.50;55.40;;;;;;5060576;28;20199;-52
2023/06/10 10:30:24;;;;;;;2.90;2.03;;;11.50;55.40;;;;;;5052053;28;20210;-52
2023/06/10 10:33:01;;;;;;;3.13;2.28;;;11.50;55.30;;;;;;5052870;28;20200;-50
2023/06/10 10:35:32;;;;;;;2.67;2.03;;;11.50;55.30;;;;;;5052764;28;20222;-55
2023/06/10 10:38:07;;;;;;;3.35;2.17;;;11.60;55.40;;;;;;5052427;28;20199;-55
2023/06/10 10:40:38;;;;;;;3.22;2.25;;;11.60;55.40;;;;;;5052533;28;20222;-56
2023/06/10 10:43:10;;;;;;;2.33;2.13;;;11.50;55.30;;;;;;5052849;28;20200;-54
2023/06/10 10:45:40;;;;;;;2.67;2.00;;;11.60;55.40;;;;;;5052116;28;20223;-56
2023/06/10 10:48:13;;;;;;;3.00;2.08;;;11.50;55.30;;;;;;5052223;28;20199;-52
2023/06/10 10:50:43;;;;;;;3.92;2.47;;;11.50;55.30;;;;;;5051795;28;20845;-53
2023/06/10 10:53:23;;;;;;;2.78;2.10;;;11.50;55.30;;;;;;5051629;28;20652;-52
2023/06/10 10:56:06;;;;;;;2.25;2.05;;;11.50;55.30;;;;;;5051009;28;20227;-47
2023/06/10 10:58:37;;;;;;;2.28;2.08;;;11.50;55.30;;;;;;5051474;28;20199;-52
2023/06/10 11:01:17;;;;;;;2.75;2.25;;;11.50;55.30;;;;;;5051733;28;20230;-49
2023/06/10 11:03:49;;;;;;;2.53;2.13;;;11.50;55.30;;;;;;5068245;28;20198;-49
2023/06/10 11:06:20;;;;;;;2.47;2.15;;;11.50;55.30;;;;;;5071807;28;20221;-49
2023/06/10 11:08:53;;;;;;;2.10;1.90;;;11.60;55.40;;;;;;5071830;28;20221;-51
2023/06/10 11:11:26;;;;;;;2.63;2.38;;;11.50;55.30;;;;;;5072097;28;20201;-54
2023/06/10 11:14:10;;;;;;;2.80;2.50;;;11.50;55.30;;;;;;5072157;28;20199;-47
2023/06/10 11:16:45;;;;;;;2.40;2.10;;;11.50;55.30;;;;;;5059402;28;20302;-52
2023/06/10 11:19:35;;;;;;;2.63;2.13;;;11.50;55.30;;;;;;5052335;28;20213;-46
2023/06/10 11:22:08;;;;;;;2.42;2.08;;;11.50;55.30;;;;;;5054983;28;20234;-50
2023/06/10 11:24:41;;;;;;;2.38;2.17;;;11.50;55.30;;;;;;5069604;28;20249;-49
2023/06/10 11:27:21;;;;;;;2.25;1.85;;;11.50;55.30;;;;;;5064385;28;20226;-54
2023/06/10 11:30:20;;;;;;;2.97;2.17;;;11.50;55.30;;;;;;5051097;28;20199;-52
2023/06/10 11:32:54;;;;;;;2.25;1.90;;;11.50;55.30;;;;;;5051333;28;20281;-49
2023/06/10 11:35:29;;;;;;;2.20;2.00;;;11.50;55.30;;;;;;5051839;28;20246;-53
2023/06/10 11:38:00;;;;;;;2.53;2.10;;;11.50;55.30;;;;;;5051849;28;20678;-52
2023/06/10 11:40:33;;;;;;;2.28;1.90;;;11.50;55.30;;;;;;5051615;28;20818;-50
2023/06/10 11:43:06;;;;;;;2.15;1.95;;;11.50;55.30;;;;;;5051813;28;20210;-51
2023/06/10 11:45:37;;;;;;;2.60;2.10;;;11.40;55.30;;;;;;5051476;28;20601;-54
2023/06/10 11:48:07;;;;;;;2.50;2.00;;;11.50;55.30;;;;;;5056777;28;20183;-48
2023/06/10 11:50:39;;;;;;;2.53;2.17;;;11.50;55.30;;;;;;5071633;28;20603;-51
2023/06/10 11:53:11;;;;;;;3.15;2.08;;;11.50;55.30;;;;;;5071274;28;20206;-50
2023/06/10 11:55:52;;;;;;;2.17;1.98;;;11.50;55.30;;;;;;5071270;28;20210;-49
2023/06/10 11:58:25;;;;;;;2.08;1.88;;;11.50;55.30;;;;;;5054238;28;20248;-52
2023/06/10 12:00:57;;;;;;;2.35;2.05;;;11.50;55.30;;;;;;5051628;28;20691;-52
2023/06/10 12:03:29;;;;;;;2.45;2.00;;;11.50;55.30;;;;;;5051333;28;20656;-49
2023/06/10 12:06:00;;;;;;;2.22;1.77;;;11.50;55.30;;;;;;5051462;28;20218;-50
2023/06/10 12:08:31;;;;;;;2.17;1.98;;;11.50;55.30;;;;;;5051410;28;20596;-54
2023/06/10 12:11:04;;;;;;;2.10;1.90;;;11.40;55.30;;;;;;5051298;28;20205;-49
2023/06/10 12:13:34;;;;;;;2.53;2.28;;;11.50;55.30;;;;;;5053722;28;20218;-52
2023/06/10 12:16:12;;;;;;;2.47;1.98;;;11.40;55.30;;;;;;5071354;28;20585;-49
2023/06/10 12:18:43;;;;;;;2.08;1.88;;;11.40;55.30;;;;;;5071159;28;20217;-49
2023/06/10 12:21:26;;;;;;;2.65;2.00;;;11.40;55.30;;;;;;5071073;28;20226;-49
2023/06/10 12:24:08;;;;;;;2.42;2.00;;;11.50;55.30;;;;;;5071521;28;20195;-52
2023/06/10 12:26:45;;;;;;;2.55;1.95;;;11.40;55.30;;;;;;5068316;28;20214;-49
2023/06/10 12:29:24;;;;;;;2.42;2.20;;;11.40;55.30;;;;;;5050848;28;20206;-46
2023/06/10 12:32:00;;;;;;;2.33;2.10;;;11.40;55.30;;;;;;5051033;28;20652;-46
2023/06/10 12:34:38;;;;;;;2.97;2.28;;;11.40;55.30;;;;;;5050883;28;20237;-47
2023/06/10 12:37:13;;;;;;;2.50;2.30;;;11.40;55.30;;;;;;5050734;28;20253;-48
2023/06/10 12:39:44;;;;;;;1.75;1.55;;;11.40;55.30;;;;;;5050773;28;20196;-51
2023/06/10 12:42:17;;;;;;;2.00;1.80;;;11.40;55.30;;;;;;5050548;28;20263;-52
2023/06/10 12:44:47;;;;;;;2.58;1.88;;;11.40;55.30;;;;;;5051242;28;20191;-52
2023/06/10 12:47:18;;;;;;;2.50;2.00;;;11.40;55.30;;;;;;5050886;28;20220;-54
2023/06/10 12:49:50;;;;;;;2.70;2.30;;;11.40;55.30;;;;;;5050603;28;20196;-52
2023/06/10 12:52:21;;;;;;;2.35;1.70;;;11.40;55.30;;;;;;5050631;28;20195;-52
2023/06/10 12:54:51;;;;;;;2.20;1.95;;;11.40;55.30;;;;;;5050912;28;20199;-52
2023/06/10 12:57:24;;;;;;;2.65;2.03;;;11.40;55.40;;;;;;5051072;28;20219;-46
2023/06/10 12:59:57;;;;;;;2.20;2.00;;;11.40;55.40;;;;;;5066983;28;20252;-52
2023/06/10 13:02:27;;;;;;;2.50;1.92;;;11.40;55.40;;;;;;5070507;28;20223;-50
2023/06/10 13:04:58;;;;;;;2.17;1.98;;;11.40;55.40;;;;;;5070575;28;20191;-49
2023/06/10 13:07:30;;;;;;;2.35;2.15;;;11.40;55.40;;;;;;5070635;28;20589;-54
2023/06/10 13:10:01;;;;;;;2.30;2.10;;;11.40;55.40;;;;;;5070941;28;20734;-54
2023/06/10 13:12:33;;;;;;;2.95;2.20;;;11.40;55.40;;;;;;5071087;28;20213;-49
2023/06/10 13:15:04;;;;;;;2.50;2.08;;;11.40;55.40;;;;;;5066410;28;20191;-54
2023/06/10 13:17:35;;;;;;;2.60;2.08;;;11.40;55.40;;;;;;5058962;28;20691;-50
2023/06/10 13:20:07;;;;;;;2.00;1.80;;;11.40;55.40;;;;;;5067134;28;20226;-53
2023/06/10 13:22:38;;;;;;;2.05;1.70;;;11.40;55.40;;;;;;5071780;28;20227;-52
2023/06/10 13:25:09;;;;;;;2.22;2.03;;;11.40;55.40;;;;;;5074048;28;20230;-50
2023/06/10 13:27:42;;;;;;;1.90;1.70;;;11.40;55.40;;;;;;5063097;28;20218;-51
2023/06/10 13:30:13;;;;;;;2.75;1.90;;;11.40;55.40;;;;;;5054304;28;20195;-51
2023/06/10 13:32:44;;;;;;;2.83;1.90;;;11.40;55.40;;;;;;5054253;28;20204;-49
2023/06/10 13:35:15;;;;;;;2.10;1.88;;;11.40;55.40;;;;;;5053515;28;20204;-47
2023/06/10 13:37:45;;;;;;;1.70;1.60;;;11.40;55.40;;;;;;5053738;28;20199;-51
2023/06/10 13:40:16;;;;;;;2.17;1.73;;;11.40;55.40;;;;;;5053924;28;20192;-47
2023/06/10 13:42:50;;;;;;;2.00;1.70;;;11.40;55.50;;;;;;5053761;28;20685;-52
2023/06/10 13:45:21;;;;;;;2.00;1.80;;;11.40;55.50;;;;;;5053662;28;20230;-53
2023/06/10 13:47:51;;;;;;;1.85;1.60;;;11.40;55.50;;;;;;5053351;28;20199;-53
2023/06/10 13:50:22;;;;;;;1.95;1.65;;;11.40;55.50;;;;;;5053319;28;20202;-51
2023/06/10 13:52:53;;;;;;;1.58;1.48;;;11.40;55.50;;;;;;5053330;28;20210;-52
2023/06/10 13:55:24;;;;;;;1.85;1.58;;;11.40;55.40;;;;;;5054331;28;20585;-46
2023/06/10 13:57:57;;;;;;;1.88;1.50;;;11.40;55.40;;;;;;5060195;28;20663;-53
2023/06/10 14:00:27;;;;;;;2.50;1.88;;;11.30;55.40;;;;;;5053500;28;20556;-52
2023/06/10 14:02:58;;;;;;;1.95;1.70;;;11.30;55.40;;;;;;5053273;28;20222;-52
2023/06/10 14:05:29;;;;;;;2.28;1.85;;;11.30;55.40;;;;;;5053131;28;20211;-49
2023/06/10 14:07:59;;;;;;;2.10;1.70;;;11.30;55.40;;;;;;5053196;28;20663;-53
2023/06/10 14:10:30;;;;;;;2.00;1.52;;;11.30;55.40;;;;;;5065410;28;20191;-51